sensor_id;sensor_type;location;lat;lon;timestamp;P1;durP1;ratioP1;P2;durP2;ratioP2
295;SDS011;132;48.770;9.200;2022-08-03T00:01:31;7.03;;;4.60;;
295;SDS011;132;48.770;9.200;2022-08-03T00:04:17;6.20;;;4.17;;
295;SDS011;132;48.770;9.200;2022-08-03T00:07:04;5.93;;;4.10;;
295;SDS011;132;48.770;9.200;2022-08-03T00:09:50;7.73;;;4.60;;
295;SDS011;132;48.770;9.200;2022-08-03T00:12:37;5.60;;;4.13;;
295;SDS011;132;48.770;9.200;2022-08-03T00:15:23;7.10;;;4.53;;
295;SDS011;132;48.770;9.200;2022-08-03T00:18:10;9.00;;;4.60;;
295;SDS011;132;48.770;9.200;2022-08-03T00:20:57;5.23;;;4.20;;
295;SDS011;132;48.770;9.200;2022-08-03T00:23:43;5.73;;;3.80;;
295;SDS011;132;48.770;9.200;2022-08-03T00:26:30;6.00;;;4.60;;
295;SDS011;132;48.770;9.200;2022-08-03T00:29:17;5.03;;;4.23;;
295;SDS011;132;48.770;9.200;2022-08-03T00:32:03;4.80;;;3.87;;
295;SDS011;132;48.770;9.200;2022-08-03T00:34:50;8.20;;;4.60;;
295;SDS011;132;48.770;9.200;2022-08-03T00:37:37;5.50;;;4.40;;
295;SDS011;132;48.770;9.200;2022-08-03T00:40:23;7.20;;;4.60;;
295;SDS011;132;48.770;9.200;2022-08-03T00:43:10;5.23;;;4.50;;
295;SDS011;132;48.770;9.200;2022-08-03T00:45:57;6.00;;;4.10;;
295;SDS011;132;48.770;9.200;2022-08-03T00:48:43;5.67;;;4.80;;
295;SDS011;132;48.770;9.200;2022-08-03T00:51:30;10.93;;;4.97;;
295;SDS011;132;48.770;9.200;2022-08-03T00:54:18;6.17;;;4.60;;
295;SDS011;132;48.770;9.200;2022-08-03T00:57:06;6.80;;;4.17;;
295;SDS011;132;48.770;9.200;2022-08-03T00:59:53;4.90;;;4.40;;
295;SDS011;132;48.770;9.200;2022-08-03T01:02:40;6.00;;;4.63;;
295;SDS011;132;48.770;9.200;2022-08-03T01:05:26;4.60;;;4.03;;
295;SDS011;132;48.770;9.200;2022-08-03T01:08:20;5.47;;;4.43;;
295;SDS011;132;48.770;9.200;2022-08-03T01:11:37;8.67;;;4.47;;
295;SDS011;132;48.770;9.200;2022-08-03T01:14:32;6.00;;;4.10;;
295;SDS011;132;48.770;9.200;2022-08-03T01:17:34;5.37;;;3.90;;
295;SDS011;132;48.770;9.200;2022-08-03T01:20:31;5.80;;;4.30;;
295;SDS011;132;48.770;9.200;2022-08-03T01:29:38;5.13;;;4.20;;
295;SDS011;132;48.770;9.200;2022-08-03T01:32:33;5.07;;;4.00;;
295;SDS011;132;48.770;9.200;2022-08-03T01:35:25;4.40;;;4.10;;
295;SDS011;132;48.770;9.200;2022-08-03T01:38:17;4.90;;;4.37;;
295;SDS011;132;48.770;9.200;2022-08-03T01:41:11;5.57;;;4.50;;
295;SDS011;132;48.770;9.200;2022-08-03T01:44:02;4.43;;;4.07;;
295;SDS011;132;48.770;9.200;2022-08-03T01:46:54;4.70;;;4.23;;
295;SDS011;132;48.770;9.200;2022-08-03T01:49:44;7.13;;;4.40;;
295;SDS011;132;48.770;9.200;2022-08-03T01:52:32;5.57;;;4.70;;
295;SDS011;132;48.770;9.200;2022-08-03T01:55:22;6.00;;;4.07;;
295;SDS011;132;48.770;9.200;2022-08-03T01:58:15;4.60;;;4.17;;
295;SDS011;132;48.770;9.200;2022-08-03T02:01:04;3.90;;;3.70;;
295;SDS011;132;48.770;9.200;2022-08-03T02:03:51;6.30;;;4.40;;
295;SDS011;132;48.770;9.200;2022-08-03T02:06:41;4.30;;;4.00;;
295;SDS011;132;48.770;9.200;2022-08-03T02:09:30;5.00;;;4.03;;
295;SDS011;132;48.770;9.200;2022-08-03T02:12:18;6.80;;;4.40;;
295;SDS011;132;48.770;9.200;2022-08-03T02:15:07;6.70;;;4.77;;
295;SDS011;132;48.770;9.200;2022-08-03T02:17:54;7.70;;;4.40;;
295;SDS011;132;48.770;9.200;2022-08-03T02:20:43;7.63;;;4.33;;
295;SDS011;132;48.770;9.200;2022-08-03T02:23:31;7.70;;;4.57;;
295;SDS011;132;48.770;9.200;2022-08-03T02:26:17;4.83;;;4.30;;
295;SDS011;132;48.770;9.200;2022-08-03T02:29:12;5.93;;;4.77;;
295;SDS011;132;48.770;9.200;2022-08-03T02:32:03;7.73;;;4.00;;
295;SDS011;132;48.770;9.200;2022-08-03T02:34:51;4.40;;;4.03;;
295;SDS011;132;48.770;9.200;2022-08-03T02:37:44;4.87;;;4.13;;
295;SDS011;132;48.770;9.200;2022-08-03T02:40:35;5.97;;;4.40;;
295;SDS011;132;48.770;9.200;2022-08-03T02:43:23;6.43;;;4.50;;
295;SDS011;132;48.770;9.200;2022-08-03T02:46:12;4.93;;;4.20;;
295;SDS011;132;48.770;9.200;2022-08-03T02:49:00;6.23;;;4.90;;
295;SDS011;132;48.770;9.200;2022-08-03T02:51:48;5.83;;;4.40;;
295;SDS011;132;48.770;9.200;2022-08-03T02:54:38;5.47;;;4.37;;
295;SDS011;132;48.770;9.200;2022-08-03T02:57:25;6.30;;;4.70;;
295;SDS011;132;48.770;9.200;2022-08-03T03:00:14;5.30;;;4.57;;
295;SDS011;132;48.770;9.200;2022-08-03T03:03:01;6.43;;;5.00;;
295;SDS011;132;48.770;9.200;2022-08-03T03:05:49;5.67;;;4.43;;
295;SDS011;132;48.770;9.200;2022-08-03T03:08:36;6.87;;;4.57;;
295;SDS011;132;48.770;9.200;2022-08-03T03:11:23;5.50;;;4.60;;
295;SDS011;132;48.770;9.200;2022-08-03T03:14:11;5.67;;;4.70;;
295;SDS011;132;48.770;9.200;2022-08-03T03:16:58;7.23;;;4.33;;
295;SDS011;132;48.770;9.200;2022-08-03T03:19:46;6.80;;;4.70;;
295;SDS011;132;48.770;9.200;2022-08-03T03:22:35;5.50;;;4.67;;
295;SDS011;132;48.770;9.200;2022-08-03T03:25:23;5.20;;;4.40;;
295;SDS011;132;48.770;9.200;2022-08-03T03:28:10;4.70;;;4.30;;
295;SDS011;132;48.770;9.200;2022-08-03T03:30:57;7.87;;;5.10;;
295;SDS011;132;48.770;9.200;2022-08-03T03:33:44;7.10;;;4.90;;
295;SDS011;132;48.770;9.200;2022-08-03T03:36:31;6.30;;;5.13;;
295;SDS011;132;48.770;9.200;2022-08-03T03:39:17;6.23;;;4.90;;
295;SDS011;132;48.770;9.200;2022-08-03T03:42:04;5.23;;;4.70;;
295;SDS011;132;48.770;9.200;2022-08-03T03:44:51;8.00;;;5.40;;
295;SDS011;132;48.770;9.200;2022-08-03T03:47:37;4.90;;;4.50;;
295;SDS011;132;48.770;9.200;2022-08-03T03:50:24;6.73;;;5.33;;
295;SDS011;132;48.770;9.200;2022-08-03T03:53:13;7.63;;;5.07;;
295;SDS011;132;48.770;9.200;2022-08-03T03:56:00;6.30;;;5.30;;
295;SDS011;132;48.770;9.200;2022-08-03T03:58:47;8.63;;;5.43;;
295;SDS011;132;48.770;9.200;2022-08-03T04:01:33;9.43;;;5.00;;
295;SDS011;132;48.770;9.200;2022-08-03T04:04:20;6.10;;;5.20;;
295;SDS011;132;48.770;9.200;2022-08-03T04:07:25;7.10;;;5.40;;
295;SDS011;132;48.770;9.200;2022-08-03T04:10:31;6.50;;;5.40;;
295;SDS011;132;48.770;9.200;2022-08-03T04:13:41;6.70;;;5.57;;
295;SDS011;132;48.770;9.200;2022-08-03T04:16:37;6.17;;;5.40;;
295;SDS011;132;48.770;9.200;2022-08-03T04:19:29;6.27;;;5.20;;
295;SDS011;132;48.770;9.200;2022-08-03T04:22:22;6.93;;;4.80;;
295;SDS011;132;48.770;9.200;2022-08-03T04:25:11;8.13;;;5.30;;
295;SDS011;132;48.770;9.200;2022-08-03T04:28:03;5.50;;;5.10;;
295;SDS011;132;48.770;9.200;2022-08-03T04:30:50;6.10;;;5.17;;
295;SDS011;132;48.770;9.200;2022-08-03T04:33:38;6.90;;;5.37;;
295;SDS011;132;48.770;9.200;2022-08-03T04:36:26;6.87;;;5.23;;
295;SDS011;132;48.770;9.200;2022-08-03T04:39:21;9.17;;;5.60;;
295;SDS011;132;48.770;9.200;2022-08-03T04:42:12;8.00;;;5.93;;
295;SDS011;132;48.770;9.200;2022-08-03T04:45:00;7.77;;;5.63;;
295;SDS011;132;48.770;9.200;2022-08-03T04:47:48;6.83;;;5.27;;
295;SDS011;132;48.770;9.200;2022-08-03T04:50:35;6.80;;;5.67;;
295;SDS011;132;48.770;9.200;2022-08-03T04:53:25;6.17;;;5.00;;
295;SDS011;132;48.770;9.200;2022-08-03T04:56:12;9.07;;;5.80;;
295;SDS011;132;48.770;9.200;2022-08-03T04:58:58;7.43;;;5.47;;
295;SDS011;132;48.770;9.200;2022-08-03T05:01:45;7.70;;;5.70;;
295;SDS011;132;48.770;9.200;2022-08-03T05:04:32;6.43;;;5.30;;
295;SDS011;132;48.770;9.200;2022-08-03T05:07:18;6.47;;;4.87;;
295;SDS011;132;48.770;9.200;2022-08-03T05:10:05;6.87;;;5.20;;
295;SDS011;132;48.770;9.200;2022-08-03T05:12:53;7.43;;;5.30;;
295;SDS011;132;48.770;9.200;2022-08-03T05:15:40;9.10;;;6.10;;
295;SDS011;132;48.770;9.200;2022-08-03T05:18:27;8.73;;;5.77;;
295;SDS011;132;48.770;9.200;2022-08-03T05:21:13;9.70;;;5.47;;
295;SDS011;132;48.770;9.200;2022-08-03T05:24:01;6.93;;;5.43;;
295;SDS011;132;48.770;9.200;2022-08-03T05:26:48;6.20;;;4.90;;
295;SDS011;132;48.770;9.200;2022-08-03T05:29:35;7.30;;;5.53;;
295;SDS011;132;48.770;9.200;2022-08-03T05:32:21;7.13;;;5.30;;
295;SDS011;132;48.770;9.200;2022-08-03T05:35:08;8.20;;;5.63;;
295;SDS011;132;48.770;9.200;2022-08-03T05:37:55;8.97;;;5.97;;
295;SDS011;132;48.770;9.200;2022-08-03T05:40:41;9.00;;;6.70;;
295;SDS011;132;48.770;9.200;2022-08-03T05:43:28;6.73;;;5.70;;
295;SDS011;132;48.770;9.200;2022-08-03T05:46:15;8.53;;;5.97;;
295;SDS011;132;48.770;9.200;2022-08-03T05:49:01;7.60;;;5.43;;
295;SDS011;132;48.770;9.200;2022-08-03T05:51:49;7.57;;;5.73;;
295;SDS011;132;48.770;9.200;2022-08-03T05:54:36;7.13;;;5.83;;
295;SDS011;132;48.770;9.200;2022-08-03T05:57:22;7.60;;;6.13;;
295;SDS011;132;48.770;9.200;2022-08-03T06:00:10;7.20;;;5.90;;
295;SDS011;132;48.770;9.200;2022-08-03T06:03:00;6.97;;;5.53;;
295;SDS011;132;48.770;9.200;2022-08-03T06:05:47;8.63;;;5.70;;
295;SDS011;132;48.770;9.200;2022-08-03T06:08:33;8.07;;;6.20;;
295;SDS011;132;48.770;9.200;2022-08-03T06:11:20;7.50;;;5.63;;
295;SDS011;132;48.770;9.200;2022-08-03T06:14:07;6.33;;;5.57;;
295;SDS011;132;48.770;9.200;2022-08-03T06:16:53;7.27;;;5.40;;
295;SDS011;132;48.770;9.200;2022-08-03T06:19:40;6.17;;;4.83;;
295;SDS011;132;48.770;9.200;2022-08-03T06:22:26;7.27;;;5.17;;
295;SDS011;132;48.770;9.200;2022-08-03T06:25:13;7.77;;;5.33;;
295;SDS011;132;48.770;9.200;2022-08-03T06:28:01;9.40;;;5.57;;
295;SDS011;132;48.770;9.200;2022-08-03T06:30:50;6.73;;;5.20;;
295;SDS011;132;48.770;9.200;2022-08-03T06:33:36;5.40;;;5.10;;
295;SDS011;132;48.770;9.200;2022-08-03T06:36:23;10.00;;;5.50;;
295;SDS011;132;48.770;9.200;2022-08-03T06:39:10;6.40;;;4.67;;
295;SDS011;132;48.770;9.200;2022-08-03T06:41:58;5.70;;;5.10;;
295;SDS011;132;48.770;9.200;2022-08-03T06:44:44;9.87;;;5.23;;
295;SDS011;132;48.770;9.200;2022-08-03T06:47:31;7.30;;;5.10;;
295;SDS011;132;48.770;9.200;2022-08-03T06:50:18;5.87;;;4.40;;
295;SDS011;132;48.770;9.200;2022-08-03T06:53:04;6.07;;;4.23;;
295;SDS011;132;48.770;9.200;2022-08-03T06:55:51;5.57;;;4.73;;
295;SDS011;132;48.770;9.200;2022-08-03T06:58:38;5.33;;;4.20;;
295;SDS011;132;48.770;9.200;2022-08-03T07:01:24;5.47;;;4.30;;
295;SDS011;132;48.770;9.200;2022-08-03T07:04:11;7.67;;;4.10;;
295;SDS011;132;48.770;9.200;2022-08-03T07:06:57;4.83;;;4.27;;
295;SDS011;132;48.770;9.200;2022-08-03T07:09:44;4.70;;;4.10;;
295;SDS011;132;48.770;9.200;2022-08-03T07:12:31;6.13;;;4.07;;
295;SDS011;132;48.770;9.200;2022-08-03T07:15:18;3.53;;;3.23;;
295;SDS011;132;48.770;9.200;2022-08-03T07:18:05;4.50;;;3.77;;
295;SDS011;132;48.770;9.200;2022-08-03T07:20:52;8.73;;;3.80;;
295;SDS011;132;48.770;9.200;2022-08-03T07:23:38;7.70;;;3.47;;
295;SDS011;132;48.770;9.200;2022-08-03T07:26:25;4.90;;;3.40;;
295;SDS011;132;48.770;9.200;2022-08-03T07:29:12;5.07;;;3.33;;
295;SDS011;132;48.770;9.200;2022-08-03T07:31:59;5.90;;;3.50;;
295;SDS011;132;48.770;9.200;2022-08-03T07:34:46;3.30;;;3.10;;
295;SDS011;132;48.770;9.200;2022-08-03T07:37:32;4.67;;;3.40;;
295;SDS011;132;48.770;9.200;2022-08-03T07:40:19;6.73;;;3.50;;
295;SDS011;132;48.770;9.200;2022-08-03T07:43:06;4.47;;;2.93;;
295;SDS011;132;48.770;9.200;2022-08-03T07:45:52;5.10;;;3.23;;
295;SDS011;132;48.770;9.200;2022-08-03T07:48:39;3.20;;;2.83;;
295;SDS011;132;48.770;9.200;2022-08-03T07:51:26;3.57;;;2.93;;
295;SDS011;132;48.770;9.200;2022-08-03T07:54:12;7.00;;;2.83;;
295;SDS011;132;48.770;9.200;2022-08-03T07:56:59;4.37;;;2.90;;
295;SDS011;132;48.770;9.200;2022-08-03T07:59:46;4.60;;;2.93;;
295;SDS011;132;48.770;9.200;2022-08-03T08:02:32;4.10;;;3.30;;
295;SDS011;132;48.770;9.200;2022-08-03T08:05:19;4.00;;;2.90;;
295;SDS011;132;48.770;9.200;2022-08-03T08:08:06;2.90;;;2.40;;
295;SDS011;132;48.770;9.200;2022-08-03T08:10:53;3.20;;;2.57;;
295;SDS011;132;48.770;9.200;2022-08-03T08:13:39;3.30;;;2.80;;
295;SDS011;132;48.770;9.200;2022-08-03T08:16:26;5.53;;;2.77;;
295;SDS011;132;48.770;9.200;2022-08-03T08:19:13;4.00;;;2.83;;
295;SDS011;132;48.770;9.200;2022-08-03T08:22:01;3.33;;;2.73;;
295;SDS011;132;48.770;9.200;2022-08-03T08:24:48;3.33;;;2.50;;
295;SDS011;132;48.770;9.200;2022-08-03T08:27:44;3.00;;;2.60;;
295;SDS011;132;48.770;9.200;2022-08-03T08:30:32;3.87;;;2.70;;
295;SDS011;132;48.770;9.200;2022-08-03T08:33:19;7.97;;;2.87;;
295;SDS011;132;48.770;9.200;2022-08-03T08:36:05;3.60;;;2.50;;
295;SDS011;132;48.770;9.200;2022-08-03T08:38:52;4.70;;;2.80;;
295;SDS011;132;48.770;9.200;2022-08-03T08:41:38;2.97;;;2.50;;
295;SDS011;132;48.770;9.200;2022-08-03T08:44:25;3.07;;;2.77;;
295;SDS011;132;48.770;9.200;2022-08-03T08:47:12;7.17;;;2.80;;
295;SDS011;132;48.770;9.200;2022-08-03T08:49:59;5.00;;;2.93;;
295;SDS011;132;48.770;9.200;2022-08-03T08:52:48;4.53;;;2.70;;
295;SDS011;132;48.770;9.200;2022-08-03T08:55:35;2.60;;;2.50;;
295;SDS011;132;48.770;9.200;2022-08-03T08:58:22;4.97;;;2.60;;
295;SDS011;132;48.770;9.200;2022-08-03T09:01:09;3.27;;;2.73;;
295;SDS011;132;48.770;9.200;2022-08-03T09:03:56;6.37;;;2.80;;
295;SDS011;132;48.770;9.200;2022-08-03T09:06:43;4.10;;;2.53;;
295;SDS011;132;48.770;9.200;2022-08-03T09:09:30;4.50;;;2.63;;
295;SDS011;132;48.770;9.200;2022-08-03T09:12:17;2.50;;;2.33;;
295;SDS011;132;48.770;9.200;2022-08-03T09:18:09;4.40;;;3.00;;
295;SDS011;132;48.770;9.200;2022-08-03T09:21:11;3.37;;;2.73;;
295;SDS011;132;48.770;9.200;2022-08-03T09:24:03;3.90;;;2.80;;
295;SDS011;132;48.770;9.200;2022-08-03T09:26:50;3.50;;;2.30;;
295;SDS011;132;48.770;9.200;2022-08-03T09:29:38;2.53;;;2.37;;
295;SDS011;132;48.770;9.200;2022-08-03T09:32:25;4.00;;;2.60;;
295;SDS011;132;48.770;9.200;2022-08-03T09:35:12;2.90;;;2.60;;
295;SDS011;132;48.770;9.200;2022-08-03T09:38:13;2.60;;;2.40;;
295;SDS011;132;48.770;9.200;2022-08-03T09:41:04;3.37;;;2.60;;
295;SDS011;132;48.770;9.200;2022-08-03T09:44:03;5.00;;;2.83;;
295;SDS011;132;48.770;9.200;2022-08-03T09:46:52;4.60;;;2.90;;
295;SDS011;132;48.770;9.200;2022-08-03T09:49:42;3.33;;;2.50;;
295;SDS011;132;48.770;9.200;2022-08-03T09:52:42;4.37;;;3.10;;
295;SDS011;132;48.770;9.200;2022-08-03T09:55:32;3.43;;;3.00;;
295;SDS011;132;48.770;9.200;2022-08-03T09:58:22;2.83;;;2.63;;
295;SDS011;132;48.770;9.200;2022-08-03T10:01:10;2.90;;;2.50;;
295;SDS011;132;48.770;9.200;2022-08-03T10:03:57;2.60;;;2.50;;
295;SDS011;132;48.770;9.200;2022-08-03T10:06:45;4.90;;;2.60;;
295;SDS011;132;48.770;9.200;2022-08-03T10:10:00;3.93;;;2.87;;
295;SDS011;132;48.770;9.200;2022-08-03T10:12:47;4.30;;;3.00;;
295;SDS011;132;48.770;9.200;2022-08-03T10:15:35;5.00;;;2.50;;
295;SDS011;132;48.770;9.200;2022-08-03T10:18:24;4.00;;;2.97;;
295;SDS011;132;48.770;9.200;2022-08-03T10:21:11;3.07;;;2.50;;
295;SDS011;132;48.770;9.200;2022-08-03T10:24:03;5.13;;;2.70;;
295;SDS011;132;48.770;9.200;2022-08-03T10:26:52;7.53;;;2.40;;
295;SDS011;132;48.770;9.200;2022-08-03T10:29:49;3.20;;;2.80;;
295;SDS011;132;48.770;9.200;2022-08-03T10:32:40;2.87;;;2.67;;
295;SDS011;132;48.770;9.200;2022-08-03T10:35:59;2.80;;;2.70;;
295;SDS011;132;48.770;9.200;2022-08-03T10:38:48;3.90;;;2.43;;
295;SDS011;132;48.770;9.200;2022-08-03T10:41:41;4.20;;;2.40;;
295;SDS011;132;48.770;9.200;2022-08-03T10:44:32;6.87;;;2.80;;
295;SDS011;132;48.770;9.200;2022-08-03T10:47:24;4.43;;;3.00;;
295;SDS011;132;48.770;9.200;2022-08-03T10:50:11;3.10;;;2.70;;
295;SDS011;132;48.770;9.200;2022-08-03T10:52:59;3.67;;;2.90;;
295;SDS011;132;48.770;9.200;2022-08-03T10:55:47;2.60;;;2.43;;
295;SDS011;132;48.770;9.200;2022-08-03T10:58:52;2.87;;;2.63;;
295;SDS011;132;48.770;9.200;2022-08-03T11:01:49;2.77;;;2.57;;
295;SDS011;132;48.770;9.200;2022-08-03T11:04:38;5.90;;;2.70;;
295;SDS011;132;48.770;9.200;2022-08-03T11:07:25;2.77;;;2.37;;
295;SDS011;132;48.770;9.200;2022-08-03T11:10:28;2.70;;;2.50;;
295;SDS011;132;48.770;9.200;2022-08-03T11:13:21;2.80;;;2.50;;
295;SDS011;132;48.770;9.200;2022-08-03T11:16:19;2.70;;;2.60;;
295;SDS011;132;48.770;9.200;2022-08-03T11:19:08;4.30;;;2.90;;
295;SDS011;132;48.770;9.200;2022-08-03T11:21:59;3.10;;;2.57;;
295;SDS011;132;48.770;9.200;2022-08-03T11:27:36;4.00;;;2.77;;
295;SDS011;132;48.770;9.200;2022-08-03T11:30:23;6.67;;;2.70;;
295;SDS011;132;48.770;9.200;2022-08-03T11:33:11;6.27;;;3.00;;
295;SDS011;132;48.770;9.200;2022-08-03T11:36:14;4.37;;;2.50;;
295;SDS011;132;48.770;9.200;2022-08-03T11:39:14;4.33;;;2.70;;
295;SDS011;132;48.770;9.200;2022-08-03T11:42:29;2.73;;;2.43;;
295;SDS011;132;48.770;9.200;2022-08-03T11:45:12;4.93;;;2.90;;
295;SDS011;132;48.770;9.200;2022-08-03T11:48:02;3.37;;;2.80;;
295;SDS011;132;48.770;9.200;2022-08-03T11:51:00;3.10;;;2.80;;
295;SDS011;132;48.770;9.200;2022-08-03T11:53:51;5.10;;;2.70;;
295;SDS011;132;48.770;9.200;2022-08-03T11:56:48;3.30;;;2.80;;
295;SDS011;132;48.770;9.200;2022-08-03T11:59:36;5.53;;;2.60;;
295;SDS011;132;48.770;9.200;2022-08-03T12:02:23;3.03;;;2.70;;
295;SDS011;132;48.770;9.200;2022-08-03T12:05:10;4.53;;;2.63;;
295;SDS011;132;48.770;9.200;2022-08-03T12:07:57;3.40;;;2.60;;
295;SDS011;132;48.770;9.200;2022-08-03T12:10:45;2.90;;;2.70;;
295;SDS011;132;48.770;9.200;2022-08-03T12:13:37;5.27;;;2.83;;
295;SDS011;132;48.770;9.200;2022-08-03T12:16:25;3.87;;;2.80;;
295;SDS011;132;48.770;9.200;2022-08-03T12:19:13;2.87;;;2.63;;
295;SDS011;132;48.770;9.200;2022-08-03T12:22:00;3.47;;;2.70;;
295;SDS011;132;48.770;9.200;2022-08-03T12:24:47;2.77;;;2.57;;
295;SDS011;132;48.770;9.200;2022-08-03T12:27:34;2.80;;;2.60;;
295;SDS011;132;48.770;9.200;2022-08-03T12:30:21;2.80;;;2.47;;
295;SDS011;132;48.770;9.200;2022-08-03T12:38:54;3.00;;;2.73;;
295;SDS011;132;48.770;9.200;2022-08-03T12:41:42;4.77;;;2.70;;
295;SDS011;132;48.770;9.200;2022-08-03T12:47:17;3.80;;;2.60;;
295;SDS011;132;48.770;9.200;2022-08-03T12:50:03;3.73;;;2.67;;
295;SDS011;132;48.770;9.200;2022-08-03T12:52:50;6.37;;;3.00;;
295;SDS011;132;48.770;9.200;2022-08-03T12:55:37;5.40;;;3.10;;
295;SDS011;132;48.770;9.200;2022-08-03T12:58:28;3.77;;;2.53;;
295;SDS011;132;48.770;9.200;2022-08-03T13:01:19;2.97;;;2.73;;
295;SDS011;132;48.770;9.200;2022-08-03T13:04:09;3.00;;;2.70;;
295;SDS011;132;48.770;9.200;2022-08-03T13:07:06;3.37;;;2.73;;
295;SDS011;132;48.770;9.200;2022-08-03T13:09:54;7.63;;;2.70;;
295;SDS011;132;48.770;9.200;2022-08-03T13:12:44;6.83;;;2.90;;
295;SDS011;132;48.770;9.200;2022-08-03T13:15:34;4.63;;;2.70;;
295;SDS011;132;48.770;9.200;2022-08-03T13:18:21;4.30;;;3.00;;
295;SDS011;132;48.770;9.200;2022-08-03T13:21:08;3.17;;;2.83;;
295;SDS011;132;48.770;9.200;2022-08-03T13:23:54;4.23;;;2.90;;
295;SDS011;132;48.770;9.200;2022-08-03T13:26:41;3.27;;;2.80;;
295;SDS011;132;48.770;9.200;2022-08-03T13:29:27;3.30;;;3.00;;
295;SDS011;132;48.770;9.200;2022-08-03T13:32:14;3.33;;;3.10;;
295;SDS011;132;48.770;9.200;2022-08-03T13:35:01;4.77;;;3.60;;
295;SDS011;132;48.770;9.200;2022-08-03T13:37:49;15.97;;;15.17;;
295;SDS011;132;48.770;9.200;2022-08-03T13:40:35;24.37;;;23.17;;
295;SDS011;132;48.770;9.200;2022-08-03T13:43:23;4.30;;;3.10;;
295;SDS011;132;48.770;9.200;2022-08-03T13:46:09;6.57;;;3.13;;
295;SDS011;132;48.770;9.200;2022-08-03T13:48:56;6.50;;;3.53;;
295;SDS011;132;48.770;9.200;2022-08-03T13:51:42;5.33;;;5.07;;
295;SDS011;132;48.770;9.200;2022-08-03T13:54:29;811.77;;;773.07;;
295;SDS011;132;48.770;9.200;2022-08-03T13:57:16;1129.83;;;999.90;;
295;SDS011;132;48.770;9.200;2022-08-03T14:00:04;1141.33;;;999.90;;
295;SDS011;132;48.770;9.200;2022-08-03T14:02:51;1140.03;;;999.90;;
295;SDS011;132;48.770;9.200;2022-08-03T14:05:38;1146.30;;;999.90;;
295;SDS011;132;48.770;9.200;2022-08-03T14:08:27;1146.77;;;999.90;;
295;SDS011;132;48.770;9.200;2022-08-03T14:11:14;1151.57;;;999.90;;
295;SDS011;132;48.770;9.200;2022-08-03T14:14:01;1158.20;;;999.90;;
295;SDS011;132;48.770;9.200;2022-08-03T14:16:48;1155.90;;;999.90;;
295;SDS011;132;48.770;9.200;2022-08-03T14:19:34;1139.90;;;999.90;;
295;SDS011;132;48.770;9.200;2022-08-03T14:22:21;1162.90;;;999.90;;
295;SDS011;132;48.770;9.200;2022-08-03T14:25:07;1159.17;;;999.90;;
295;SDS011;132;48.770;9.200;2022-08-03T14:27:54;1154.50;;;999.90;;
295;SDS011;132;48.770;9.200;2022-08-03T14:30:41;1149.07;;;999.90;;
295;SDS011;132;48.770;9.200;2022-08-03T14:33:27;1147.00;;;999.90;;
295;SDS011;132;48.770;9.200;2022-08-03T14:36:14;1153.13;;;999.90;;
295;SDS011;132;48.770;9.200;2022-08-03T14:39:01;1139.43;;;999.90;;
295;SDS011;132;48.770;9.200;2022-08-03T14:41:47;1134.20;;;999.90;;
295;SDS011;132;48.770;9.200;2022-08-03T14:44:34;1139.83;;;999.90;;
295;SDS011;132;48.770;9.200;2022-08-03T14:47:21;1131.00;;;999.90;;
295;SDS011;132;48.770;9.200;2022-08-03T14:50:07;1125.53;;;999.90;;
295;SDS011;132;48.770;9.200;2022-08-03T14:52:54;1128.00;;;999.90;;
295;SDS011;132;48.770;9.200;2022-08-03T14:55:41;1125.15;;;999.90;;
295;SDS011;132;48.770;9.200;2022-08-03T14:58:28;1117.57;;;999.90;;
295;SDS011;132;48.770;9.200;2022-08-03T15:01:15;1110.20;;;999.90;;
295;SDS011;132;48.770;9.200;2022-08-03T15:04:01;1110.28;;;999.90;;
295;SDS011;132;48.770;9.200;2022-08-03T15:06:48;1106.07;;;999.90;;
295;SDS011;132;48.770;9.200;2022-08-03T15:09:35;1101.85;;;999.90;;
295;SDS011;132;48.770;9.200;2022-08-03T15:12:23;1100.75;;;999.90;;
295;SDS011;132;48.770;9.200;2022-08-03T15:15:10;1090.78;;;999.90;;
295;SDS011;132;48.770;9.200;2022-08-03T15:17:57;1082.18;;;999.90;;
295;SDS011;132;48.770;9.200;2022-08-03T15:20:43;1076.03;;;999.90;;
295;SDS011;132;48.770;9.200;2022-08-03T15:23:30;1065.50;;;999.90;;
295;SDS011;132;48.770;9.200;2022-08-03T15:26:17;987.42;;;940.38;;
295;SDS011;132;48.770;9.200;2022-08-03T15:29:03;920.20;;;876.33;;
295;SDS011;132;48.770;9.200;2022-08-03T15:31:50;955.17;;;909.67;;
295;SDS011;132;48.770;9.200;2022-08-03T15:34:36;10.10;;;9.60;;
295;SDS011;132;48.770;9.200;2022-08-03T15:37:23;3.73;;;3.53;;
295;SDS011;132;48.770;9.200;2022-08-03T15:40:10;101.53;;;96.63;;
295;SDS011;132;48.770;9.200;2022-08-03T15:42:58;21.17;;;20.07;;
295;SDS011;132;48.770;9.200;2022-08-03T15:45:45;24.20;;;23.00;;
295;SDS011;132;48.770;9.200;2022-08-03T15:48:32;3.60;;;3.40;;
295;SDS011;132;48.770;9.200;2022-08-03T15:51:19;8.87;;;3.00;;
295;SDS011;132;48.770;9.200;2022-08-03T15:54:05;2.83;;;2.73;;
295;SDS011;132;48.770;9.200;2022-08-03T15:56:52;4.43;;;3.00;;
295;SDS011;132;48.770;9.200;2022-08-03T15:59:39;7.70;;;2.60;;
295;SDS011;132;48.770;9.200;2022-08-03T16:02:25;3.90;;;2.53;;
295;SDS011;132;48.770;9.200;2022-08-03T16:05:12;3.87;;;2.70;;
295;SDS011;132;48.770;9.200;2022-08-03T16:07:59;2.93;;;2.73;;
295;SDS011;132;48.770;9.200;2022-08-03T16:10:46;2.97;;;2.70;;
295;SDS011;132;48.770;9.200;2022-08-03T16:13:33;3.67;;;2.70;;
295;SDS011;132;48.770;9.200;2022-08-03T16:16:19;7.23;;;2.70;;
295;SDS011;132;48.770;9.200;2022-08-03T16:19:06;4.10;;;2.73;;
295;SDS011;132;48.770;9.200;2022-08-03T16:21:52;3.27;;;2.60;;
295;SDS011;132;48.770;9.200;2022-08-03T16:24:39;3.00;;;2.80;;
295;SDS011;132;48.770;9.200;2022-08-03T16:27:25;4.20;;;3.00;;
295;SDS011;132;48.770;9.200;2022-08-03T16:30:13;3.87;;;2.80;;
295;SDS011;132;48.770;9.200;2022-08-03T16:33:01;3.13;;;2.60;;
295;SDS011;132;48.770;9.200;2022-08-03T16:35:48;2.80;;;2.60;;
295;SDS011;132;48.770;9.200;2022-08-03T16:38:35;2.63;;;2.50;;
295;SDS011;132;48.770;9.200;2022-08-03T16:41:21;3.17;;;2.53;;
295;SDS011;132;48.770;9.200;2022-08-03T16:44:08;2.80;;;2.50;;
295;SDS011;132;48.770;9.200;2022-08-03T16:46:54;3.97;;;2.43;;
295;SDS011;132;48.770;9.200;2022-08-03T16:49:41;2.67;;;2.50;;
295;SDS011;132;48.770;9.200;2022-08-03T16:52:28;3.00;;;2.60;;
295;SDS011;132;48.770;9.200;2022-08-03T16:55:14;3.07;;;2.43;;
295;SDS011;132;48.770;9.200;2022-08-03T16:58:01;2.97;;;2.50;;
295;SDS011;132;48.770;9.200;2022-08-03T17:00:48;2.83;;;2.57;;
295;SDS011;132;48.770;9.200;2022-08-03T17:03:35;2.67;;;2.47;;
295;SDS011;132;48.770;9.200;2022-08-03T17:06:24;3.80;;;2.57;;
295;SDS011;132;48.770;9.200;2022-08-03T17:09:13;2.60;;;2.40;;
295;SDS011;132;48.770;9.200;2022-08-03T17:12:00;2.57;;;2.43;;
295;SDS011;132;48.770;9.200;2022-08-03T17:14:47;2.97;;;2.30;;
295;SDS011;132;48.770;9.200;2022-08-03T17:17:34;5.33;;;2.80;;
295;SDS011;132;48.770;9.200;2022-08-03T17:20:22;4.37;;;2.77;;
295;SDS011;132;48.770;9.200;2022-08-03T17:23:12;2.63;;;2.33;;
295;SDS011;132;48.770;9.200;2022-08-03T17:26:12;3.20;;;2.80;;
295;SDS011;132;48.770;9.200;2022-08-03T17:29:01;3.20;;;2.30;;
295;SDS011;132;48.770;9.200;2022-08-03T17:31:50;3.17;;;2.60;;
295;SDS011;132;48.770;9.200;2022-08-03T17:34:39;3.20;;;2.60;;
295;SDS011;132;48.770;9.200;2022-08-03T17:37:28;10.60;;;8.50;;
295;SDS011;132;48.770;9.200;2022-08-03T17:40:15;6.50;;;5.20;;
295;SDS011;132;48.770;9.200;2022-08-03T17:43:02;3.77;;;3.57;;
295;SDS011;132;48.770;9.200;2022-08-03T17:45:49;5.00;;;3.50;;
295;SDS011;132;48.770;9.200;2022-08-03T17:48:36;4.43;;;2.87;;
295;SDS011;132;48.770;9.200;2022-08-03T17:54:29;5.73;;;2.60;;
295;SDS011;132;48.770;9.200;2022-08-03T17:57:30;3.50;;;2.73;;
295;SDS011;132;48.770;9.200;2022-08-03T18:00:38;4.33;;;2.93;;
295;SDS011;132;48.770;9.200;2022-08-03T18:03:48;3.60;;;2.50;;
295;SDS011;132;48.770;9.200;2022-08-03T18:06:38;4.50;;;2.80;;
295;SDS011;132;48.770;9.200;2022-08-03T18:09:27;2.77;;;2.53;;
295;SDS011;132;48.770;9.200;2022-08-03T18:12:20;4.07;;;2.80;;
295;SDS011;132;48.770;9.200;2022-08-03T18:15:12;6.07;;;3.60;;
295;SDS011;132;48.770;9.200;2022-08-03T18:18:03;3.63;;;2.80;;